Time;durP1;ratioP1;P1;durP2;ratioP2;P2;SDS_P1;SDS_P2;PMS_P1;PMS_P2;Temp;Humidity;BMP_temperature;BMP_pressure;BME280_temperature;BME280_humidity;BME280_pressure;Samples;Min_cycle;Max_cycle;Signal;HPM_P1;HPM_P2
2023/07/06 00:01:39;;;;;;;0.82;0.80;;;;;;;;;;5044197;28;20124;-61
2023/07/06 00:04:05;;;;;;;0.70;0.70;;;;;;;;;;5029793;28;20068;-61
2023/07/06 00:06:32;;;;;;;1.27;1.00;;;;;;;;;;5023468;28;20524;-61
2023/07/06 00:08:59;;;;;;;0.73;0.73;;;;;;;;;;5024644;28;20056;-61
2023/07/06 00:11:26;;;;;;;1.02;0.68;;;;;;;;;;5023959;28;20600;-61
2023/07/06 00:13:52;;;;;;;0.85;0.85;;;;;;;;;;5024504;28;20053;-61
2023/07/06 00:16:21;;;;;;;1.17;0.98;;;;;;;;;;5024379;28;20041;-61
2023/07/06 00:18:47;;;;;;;0.93;0.93;;;;;;;;;;5024391;28;20048;-61
2023/07/06 00:21:13;;;;;;;4.07;1.50;;;;;;;;;;5023525;28;20049;-61
2023/07/06 00:23:43;;;;;;;1.13;1.02;;;;;;;;;;5024635;28;20041;-62
2023/07/06 00:26:09;;;;;;;1.55;1.25;;;;;;;;;;5023441;28;20057;-61
2023/07/06 00:28:35;;;;;;;1.33;1.23;;;;;;;;;;5027599;28;20112;-62
2023/07/06 00:31:10;;;;;;;1.50;0.85;;;;;;;;;;5044757;28;20159;-61
2023/07/06 00:33:37;;;;;;;1.40;1.30;;;;;;;;;;5041635;28;20120;-61
2023/07/06 00:36:03;;;;;;;1.42;1.33;;;;;;;;;;5039335;28;20437;-62
2023/07/06 00:38:29;;;;;;;1.05;1.00;;;;;;;;;;5036705;28;20085;-61
2023/07/06 00:40:57;;;;;;;1.25;1.15;;;;;;;;;;5023781;28;20107;-61
2023/07/06 00:43:25;;;;;;;1.20;1.10;;;;;;;;;;5025998;28;20037;-61
2023/07/06 00:45:53;;;;;;;1.35;1.25;;;;;;;;;;5028581;28;20077;-61
2023/07/06 00:48:49;;;;;;;1.35;1.25;;;;;;;;;;5026304;28;20052;-61
2023/07/06 00:51:21;;;;;;;1.27;1.13;;;;;;;;;;5014402;28;20063;-61
2023/07/06 00:53:51;;;;;;;1.70;1.60;;;;;;;;;;5027883;28;20045;-61
2023/07/06 00:56:18;;;;;;;1.05;1.00;;;;;;;;;;5026600;28;20045;-61
2023/07/06 00:58:45;;;;;;;0.88;0.88;;;;;;;;;;5027483;28;20469;-61
2023/07/06 01:01:13;;;;;;;0.82;0.82;;;;;;;;;;5027245;28;20041;-61
2023/07/06 01:03:44;;;;;;;0.98;0.98;;;;;;;;;;5027153;28;20505;-61
2023/07/06 01:06:12;;;;;;;1.08;0.70;;;;;;;;;;5027321;28;20101;-61
2023/07/06 01:08:38;;;;;;;0.90;0.90;;;;;;;;;;5026583;28;20037;-61
2023/07/06 01:11:04;;;;;;;0.88;0.88;;;;;;;;;;5039020;28;20071;-61
2023/07/06 01:13:32;;;;;;;0.60;0.60;;;;;;;;;;5030185;28;20041;-61
2023/07/06 01:16:05;;;;;;;0.77;0.75;;;;;;;;;;5046741;28;20128;-61
2023/07/06 01:18:35;;;;;;;1.10;0.80;;;;;;;;;;5032180;28;20095;-61
2023/07/06 01:21:09;;;;;;;0.70;0.70;;;;;;;;;;5027283;28;20049;-61
2023/07/06 01:23:41;;;;;;;0.60;0.60;;;;;;;;;;5026234;28;20050;-61
2023/07/06 01:26:18;;;;;;;0.60;0.60;;;;;;;;;;5026783;28;20038;-61
2023/07/06 01:28:59;;;;;;;0.77;0.77;;;;;;;;;;5026975;28;20532;-61
2023/07/06 01:31:45;;;;;;;0.63;0.60;;;;;;;;;;5025990;28;20044;-61
2023/07/06 01:34:11;;;;;;;0.95;0.95;;;;;;;;;;5026754;28;20052;-61
2023/07/06 01:36:40;;;;;;;1.45;0.85;;;;;;;;;;5025989;28;20037;-61
2023/07/06 01:39:14;;;;;;;0.73;0.73;;;;;;;;;;5026766;28;20505;-61
2023/07/06 01:41:40;;;;;;;0.82;0.80;;;;;;;;;;5026841;28;20041;-61
2023/07/06 01:44:12;;;;;;;1.27;1.17;;;;;;;;;;5026031;28;20177;-61
2023/07/06 01:46:39;;;;;;;0.82;0.80;;;;;;;;;;5035010;28;20029;-61
2023/07/06 01:49:05;;;;;;;0.65;0.65;;;;;;;;;;5032829;28;20041;-61
2023/07/06 01:51:42;;;;;;;1.10;1.02;;;;;;;;;;5036103;28;20535;-61
2023/07/06 01:54:11;;;;;;;1.13;1.02;;;;;;;;;;5026072;28;20092;-61
2023/07/06 01:56:43;;;;;;;1.30;1.10;;;;;;;;;;5026210;28;20045;-61
2023/07/06 01:59:13;;;;;;;0.80;0.80;;;;;;;;;;5025360;28;20045;-61
2023/07/06 02:01:45;;;;;;;1.30;1.20;;;;;;;;;;5026337;28;20052;-61
2023/07/06 02:04:12;;;;;;;1.00;1.00;;;;;;;;;;5026197;28;20183;-61
2023/07/06 02:06:39;;;;;;;0.80;0.80;;;;;;;;;;5025653;28;20397;-61
2023/07/06 02:09:06;;;;;;;0.77;0.77;;;;;;;;;;5026274;28;20045;-61
2023/07/06 02:11:35;;;;;;;1.00;1.00;;;;;;;;;;5025860;28;20068;-61
2023/07/06 02:14:01;;;;;;;0.88;0.88;;;;;;;;;;5025739;28;20450;-61
2023/07/06 02:16:27;;;;;;;1.00;1.00;;;;;;;;;;5025637;28;20632;-61
2023/07/06 02:18:55;;;;;;;1.23;1.13;;;;;;;;;;5025946;28;20048;-61
2023/07/06 02:21:22;;;;;;;1.00;1.00;;;;;;;;;;5026219;28;20045;-61
2023/07/06 02:23:48;;;;;;;1.08;1.08;;;;;;;;;;5038935;28;20382;-61
2023/07/06 02:26:14;;;;;;;1.10;1.10;;;;;;;;;;5035236;28;20600;-61
2023/07/06 02:28:42;;;;;;;2.13;1.52;;;;;;;;;;5025845;28;20075;-61
2023/07/06 02:31:09;;;;;;;1.58;1.48;;;;;;;;;;5025896;28;20045;-61
2023/07/06 02:33:35;;;;;;;1.13;1.02;;;;;;;;;;5025110;28;20053;-61
2023/07/06 02:36:01;;;;;;;0.95;0.90;;;;;;;;;;5025851;28;20272;-61
2023/07/06 02:38:30;;;;;;;0.80;0.80;;;;;;;;;;5025384;28;20107;-61
2023/07/06 02:41:01;;;;;;;0.70;0.70;;;;;;;;;;5025430;28;20053;-61
2023/07/06 02:43:27;;;;;;;1.20;1.10;;;;;;;;;;5033277;28;20053;-61
2023/07/06 02:45:53;;;;;;;1.15;1.10;;;;;;;;;;5040762;28;20391;-61
2023/07/06 02:48:19;;;;;;;0.93;0.93;;;;;;;;;;5024794;28;20048;-61
2023/07/06 02:50:51;;;;;;;1.00;0.80;;;;;;;;;;5025696;28;20577;-61
2023/07/06 02:53:18;;;;;;;2.63;2.42;;;;;;;;;;5025213;28;20045;-62
2023/07/06 02:55:47;;;;;;;1.55;1.45;;;;;;;;;;5024601;28;20057;-61
2023/07/06 02:58:14;;;;;;;1.33;1.23;;;;;;;;;;5029821;28;20037;-61
2023/07/06 03:00:40;;;;;;;1.35;1.25;;;;;;;;;;5034451;28;20072;-61
2023/07/06 03:03:08;;;;;;;1.30;1.20;;;;;;;;;;5039487;28;20501;-61
2023/07/06 03:05:36;;;;;;;1.42;1.33;;;;;;;;;;5028461;28;20336;-61
2023/07/06 03:08:03;;;;;;;1.05;0.95;;;;;;;;;;5023196;28;20057;-61
2023/07/06 03:10:30;;;;;;;1.10;1.00;;;;;;;;;;5024475;28;20411;-61
2023/07/06 03:12:57;;;;;;;2.05;1.40;;;;;;;;;;5024988;28;20483;-62
2023/07/06 03:15:24;;;;;;;1.17;1.15;;;;;;;;;;5024688;28;20045;-61
2023/07/06 03:17:51;;;;;;;1.00;1.00;;;;;;;;;;5025091;28;20037;-61
2023/07/06 03:20:22;;;;;;;0.90;0.90;;;;;;;;;;5023503;28;20042;-61
2023/07/06 03:22:51;;;;;;;0.80;0.80;;;;;;;;;;5024410;28;20056;-61
2023/07/06 03:25:18;;;;;;;1.27;1.17;;;;;;;;;;5024574;28;20056;-61
2023/07/06 03:27:46;;;;;;;0.80;0.80;;;;;;;;;;5025075;28;20049;-61
2023/07/06 03:30:12;;;;;;;1.13;1.02;;;;;;;;;;5024197;28;20045;-61
2023/07/06 03:32:39;;;;;;;1.08;0.90;;;;;;;;;;5024840;28;20045;-61
2023/07/06 03:35:05;;;;;;;0.75;0.75;;;;;;;;;;5036839;28;20513;-61
2023/07/06 03:37:32;;;;;;;1.20;1.10;;;;;;;;;;5027022;28;20049;-61
2023/07/06 03:39:58;;;;;;;1.25;1.15;;;;;;;;;;5040142;28;20046;-61
2023/07/06 03:42:24;;;;;;;0.80;0.80;;;;;;;;;;5025347;28;20417;-61
2023/07/06 03:44:55;;;;;;;1.42;1.13;;;;;;;;;;5023972;28;20504;-61
2023/07/06 03:47:23;;;;;;;1.02;0.93;;;;;;;;;;5029736;28;20234;-61
2023/07/06 03:49:49;;;;;;;1.45;1.27;;;;;;;;;;5044585;28;20045;-61
2023/07/06 03:52:17;;;;;;;1.38;1.15;;;;;;;;;;5043496;28;20492;-61
2023/07/06 03:54:44;;;;;;;1.60;1.50;;;;;;;;;;5044721;28;20075;-61
2023/07/06 03:57:11;;;;;;;1.58;1.48;;;;;;;;;;5043452;28;20052;-62
2023/07/06 03:59:38;;;;;;;1.52;1.42;;;;;;;;;;5044575;28;20045;-61
2023/07/06 04:02:06;;;;;;;1.67;1.58;;;;;;;;;;5044471;28;20127;-61
2023/07/06 04:04:32;;;;;;;1.75;1.42;;;;;;;;;;5043498;28;20044;-61
2023/07/06 04:06:58;;;;;;;1.50;1.40;;;;;;;;;;5044576;28;20041;-61
2023/07/06 04:09:28;;;;;;;2.10;1.92;;;;;;;;;;5044944;28;20455;-61
2023/07/06 04:11:54;;;;;;;2.65;2.45;;;;;;;;;;5038216;28;20068;-61
2023/07/06 04:14:24;;;;;;;2.20;2.00;;;;;;;;;;5038030;28;20045;-62
2023/07/06 04:16:51;;;;;;;2.35;2.25;;;;;;;;;;5025213;28;20520;-61
2023/07/06 04:19:17;;;;;;;2.50;2.20;;;;;;;;;;5027146;28;20046;-61
2023/07/06 04:21:43;;;;;;;2.70;2.50;;;;;;;;;;5028281;28;20728;-61
2023/07/06 04:24:09;;;;;;;4.88;2.90;;;;;;;;;;5027903;28;20285;-61
2023/07/06 04:26:35;;;;;;;2.53;2.33;;;;;;;;;;5027521;28;20068;-61
2023/07/06 04:29:02;;;;;;;1.90;1.80;;;;;;;;;;5028090;28;20041;-61
2023/07/06 04:31:28;;;;;;;2.53;2.30;;;;;;;;;;5028051;28;20041;-61
2023/07/06 04:33:54;;;;;;;3.75;2.05;;;;;;;;;;5027825;28;20045;-61
2023/07/06 04:36:20;;;;;;;2.00;1.90;;;;;;;;;;5027800;28;20095;-61
2023/07/06 04:38:46;;;;;;;1.55;1.45;;;;;;;;;;5027982;28;21128;-61
2023/07/06 04:41:13;;;;;;;1.63;1.50;;;;;;;;;;5027067;28;20057;-62
2023/07/06 04:43:39;;;;;;;1.42;1.33;;;;;;;;;;5027803;28;20405;-61
2023/07/06 04:46:05;;;;;;;0.90;0.82;;;;;;;;;;5031823;28;20040;-61
2023/07/06 04:48:34;;;;;;;0.80;0.80;;;;;;;;;;5038837;28;20054;-61
2023/07/06 04:51:01;;;;;;;0.80;0.80;;;;;;;;;;5041609;28;20041;-61
2023/07/06 04:53:28;;;;;;;0.73;0.73;;;;;;;;;;5026607;28;20049;-61
2023/07/06 04:55:56;;;;;;;1.30;1.20;;;;;;;;;;5028427;28;20037;-61
2023/07/06 04:58:22;;;;;;;1.50;1.40;;;;;;;;;;5027773;28;20049;-62
2023/07/06 05:00:50;;;;;;;2.92;2.60;;;;;;;;;;5026969;28;20037;-62
2023/07/06 05:03:16;;;;;;;2.67;2.47;;;;;;;;;;5027130;28;20424;-61
2023/07/06 05:05:43;;;;;;;1.80;1.70;;;;;;;;;;5035803;28;20110;-61
2023/07/06 05:08:13;;;;;;;2.85;2.65;;;;;;;;;;5036421;28;20095;-61
2023/07/06 05:10:39;;;;;;;2.40;2.20;;;;;;;;;;5047041;28;20076;-61
2023/07/06 05:13:06;;;;;;;2.08;1.92;;;;;;;;;;5047159;28;20064;-61
2023/07/06 05:15:32;;;;;;;1.85;1.75;;;;;;;;;;5046326;28;20124;-61
2023/07/06 05:18:01;;;;;;;1.83;1.73;;;;;;;;;;5047429;28;20120;-61
2023/07/06 05:20:28;;;;;;;2.25;2.05;;;;;;;;;;5047286;28;20480;-61
2023/07/06 05:22:54;;;;;;;2.05;1.90;;;;;;;;;;5041305;28;20049;-61
2023/07/06 05:25:20;;;;;;;2.05;1.88;;;;;;;;;;5038183;28;20502;-61
2023/07/06 05:27:47;;;;;;;3.22;2.92;;;;;;;;;;5036056;28;20585;-61
2023/07/06 05:30:13;;;;;;;2.50;2.30;;;;;;;;;;5025121;28;20099;-61
2023/07/06 05:32:39;;;;;;;2.25;2.15;;;;;;;;;;5037287;28;20494;-61
2023/07/06 05:35:06;;;;;;;5.93;3.15;;;;;;;;;;5035472;28;20059;-62
2023/07/06 05:37:33;;;;;;;4.25;3.28;;;;;;;;;;5028719;28;20044;-61
2023/07/06 05:39:59;;;;;;;2.80;2.60;;;;;;;;;;5046786;28;20041;-61
2023/07/06 05:42:26;;;;;;;3.45;3.15;;;;;;;;;;5046684;28;20056;-61
2023/07/06 05:44:52;;;;;;;5.90;4.47;;;;;;;;;;5045748;28;20045;-61
2023/07/06 05:47:18;;;;;;;8.07;6.22;;;;;;;;;;5045605;28;20115;-61
2023/07/06 05:49:44;;;;;;;6.07;5.53;;;;;;;;;;5038856;28;20032;-62
2023/07/06 05:52:10;;;;;;;4.03;3.72;;;;;;;;;;5044355;28;20057;-61
2023/07/06 05:54:36;;;;;;;3.78;3.47;;;;;;;;;;5026396;28;20041;-62
2023/07/06 05:57:03;;;;;;;2.60;2.40;;;;;;;;;;5025688;28;20053;-61
2023/07/06 05:59:32;;;;;;;1.70;1.60;;;;;;;;;;5034287;28;20049;-61
2023/07/06 06:01:59;;;;;;;2.17;2.03;;;;;;;;;;5037499;28;20041;-61
2023/07/06 06:04:28;;;;;;;4.30;2.50;;;;;;;;;;5045201;28;20114;-61
2023/07/06 06:06:56;;;;;;;3.78;2.60;;;;;;;;;;5046874;28;20607;-61
2023/07/06 06:09:23;;;;;;;7.00;2.65;;;;;;;;;;5046034;28;20086;-62
2023/07/06 06:11:49;;;;;;;5.07;3.10;;;;;;;;;;5045320;28;20059;-61
2023/07/06 06:14:15;;;;;;;8.40;5.28;;;;;;;;;;5045934;28;20302;-62
2023/07/06 06:16:42;;;;;;;5.65;4.22;;;;;;;;;;5046058;28;20077;-62
2023/07/06 06:19:08;;;;;;;4.95;3.75;;;;;;;;;;5044824;28;20044;-62
2023/07/06 06:21:34;;;;;;;5.53;4.50;;;;;;;;;;5045949;28;20045;-61
2023/07/06 06:24:01;;;;;;;5.00;4.25;;;;;;;;;;5046028;28;20033;-61
2023/07/06 06:26:29;;;;;;;8.23;5.88;;;;;;;;;;5045156;28;20119;-62
2023/07/06 06:28:55;;;;;;;6.88;4.60;;;;;;;;;;5046464;28;20053;-61
2023/07/06 06:31:21;;;;;;;5.05;4.35;;;;;;;;;;5045519;28;20041;-61
2023/07/06 06:33:47;;;;;;;4.97;4.47;;;;;;;;;;5044075;28;20102;-62
2023/07/06 06:36:14;;;;;;;7.65;5.75;;;;;;;;;;5038594;28;20456;-61
2023/07/06 06:38:41;;;;;;;7.15;4.60;;;;;;;;;;5040470;28;20046;-61
2023/07/06 06:41:07;;;;;;;4.75;4.35;;;;;;;;;;5023713;28;20050;-61
2023/07/06 06:43:37;;;;;;;8.45;6.30;;;;;;;;;;5025698;28;20042;-61
2023/07/06 06:46:03;;;;;;;4.55;4.10;;;;;;;;;;5024876;28;20080;-62
2023/07/06 06:48:29;;;;;;;4.57;3.60;;;;;;;;;;5029484;28;20060;-62
2023/07/06 06:50:56;;;;;;;3.50;3.10;;;;;;;;;;5034783;28;20124;-62
2023/07/06 06:53:22;;;;;;;2.50;2.30;;;;;;;;;;5043802;28;20044;-62
2023/07/06 06:55:48;;;;;;;2.70;2.13;;;;;;;;;;5045518;28;20382;-61
2023/07/06 06:58:15;;;;;;;3.72;2.17;;;;;;;;;;5044908;28;20045;-62
2023/07/06 07:00:41;;;;;;;3.55;3.13;;;;;;;;;;5044678;28;20079;-62
2023/07/06 07:03:13;;;;;;;5.00;3.33;;;;;;;;;;5045037;28;20040;-62
2023/07/06 07:05:40;;;;;;;7.60;3.60;;;;;;;;;;5045258;28;20581;-61
2023/07/06 07:08:06;;;;;;;6.25;4.95;;;;;;;;;;5044350;28;20473;-62
2023/07/06 07:10:32;;;;;;;3.70;3.40;;;;;;;;;;5045291;28;20041;-62
2023/07/06 07:12:59;;;;;;;7.10;4.40;;;;;;;;;;5045318;28;20056;-62
2023/07/06 07:15:25;;;;;;;5.25;3.70;;;;;;;;;;5044354;28;20056;-62
2023/07/06 07:17:51;;;;;;;6.30;4.68;;;;;;;;;;5044817;28;20406;-62
2023/07/06 07:20:18;;;;;;;5.85;4.45;;;;;;;;;;5042636;28;20080;-62
2023/07/06 07:22:45;;;;;;;10.05;4.90;;;;;;;;;;5045127;28;20045;-62
2023/07/06 07:25:12;;;;;;;4.88;3.22;;;;;;;;;;5045449;28;20744;-62
2023/07/06 07:27:38;;;;;;;4.25;2.53;;;;;;;;;;5038046;28;20053;-62
2023/07/06 07:30:05;;;;;;;3.47;2.15;;;;;;;;;;5025425;28;20041;-61
2023/07/06 07:32:32;;;;;;;2.30;2.05;;;;;;;;;;5025651;28;20056;-62
2023/07/06 07:34:58;;;;;;;5.72;3.72;;;;;;;;;;5026245;28;20045;-62
2023/07/06 07:37:25;;;;;;;3.15;2.67;;;;;;;;;;5025024;28;20516;-62
2023/07/06 07:39:51;;;;;;;4.07;2.08;;;;;;;;;;5026160;28;20041;-62
2023/07/06 07:42:18;;;;;;;3.00;2.60;;;;;;;;;;5027222;28;20040;-62
2023/07/06 07:44:44;;;;;;;2.28;2.08;;;;;;;;;;5037937;28;20488;-62
2023/07/06 07:47:18;;;;;;;3.30;2.38;;;;;;;;;;5034830;28;20103;-62
2023/07/06 07:49:47;;;;;;;1.58;1.40;;;;;;;;;;5034699;28;20050;-62
2023/07/06 07:52:14;;;;;;;2.15;1.10;;;;;;;;;;5034697;28;20038;-62
2023/07/06 07:54:42;;;;;;;1.17;1.15;;;;;;;;;;5042189;28;20090;-62
2023/07/06 07:57:08;;;;;;;2.45;1.70;;;;;;;;;;5044641;28;20553;-61
2023/07/06 07:59:35;;;;;;;1.50;1.35;;;;;;;;;;5028625;28;20049;-63
2023/07/06 08:02:02;;;;;;;1.00;0.90;;;;;;;;;;5039589;28;20098;-59
2023/07/06 08:04:28;;;;;;;2.85;1.40;;;;;;;;;;5034838;28;20489;-62
2023/07/06 08:06:54;;;;;;;2.72;1.67;;;;;;;;;;5040638;28;20041;-64
2023/07/06 08:09:21;;;;;;;3.22;1.50;;;;;;;;;;5039720;28;20052;-62
2023/07/06 08:11:47;;;;;;;1.25;1.15;;;;;;;;;;5039868;28;20064;-61
2023/07/06 08:14:13;;;;;;;1.20;1.20;;;;;;;;;;5033146;28;20056;-61
2023/07/06 08:16:42;;;;;;;1.05;1.00;;;;;;;;;;5028531;28;20045;-61
2023/07/06 08:19:09;;;;;;;0.50;0.50;;;;;;;;;;5044031;28;20044;-61
2023/07/06 08:21:35;;;;;;;0.90;0.90;;;;;;;;;;5047893;28;20045;-61
2023/07/06 08:24:01;;;;;;;0.98;0.98;;;;;;;;;;5038438;28;20043;-61
2023/07/06 08:26:31;;;;;;;2.22;2.03;;;;;;;;;;5045704;28;20056;-61
2023/07/06 08:28:57;;;;;;;2.20;1.80;;;;;;;;;;5044063;28;20459;-60
2023/07/06 08:31:24;;;;;;;3.38;1.40;;;;;;;;;;5031765;28;20056;-60
2023/07/06 08:33:50;;;;;;;1.10;1.00;;;;;;;;;;5047000;28;20314;-61
2023/07/06 08:36:18;;;;;;;1.30;1.02;;;;;;;;;;5046674;28;20405;-61
2023/07/06 08:38:44;;;;;;;1.60;1.50;;;;;;;;;;5044131;28;20048;-61
2023/07/06 08:41:26;;;;;;;0.98;0.98;;;;;;;;;;5044446;28;20036;-61
2023/07/06 08:43:53;;;;;;;1.77;1.27;;;;;;;;;;5038318;28;20107;-61
2023/07/06 08:46:20;;;;;;;1.58;1.13;;;;;;;;;;5030515;28;20134;-61
2023/07/06 08:48:46;;;;;;;1.60;1.00;;;;;;;;;;5035771;28;20049;-62
2023/07/06 08:51:31;;;;;;;1.10;1.00;;;;;;;;;;5034300;28;20053;-63
2023/07/06 08:54:06;;;;;;;1.60;1.10;;;;;;;;;;5025575;28;20033;-62
2023/07/06 08:56:36;;;;;;;1.02;0.93;;;;;;;;;;5023792;28;20106;-62
2023/07/06 08:59:04;;;;;;;2.28;1.73;;;;;;;;;;5026552;28;20674;-62
2023/07/06 09:01:31;;;;;;;4.20;1.70;;;;;;;;;;5025390;28;20049;-62
2023/07/06 09:03:59;;;;;;;3.58;2.10;;;;;;;;;;5025430;28;20120;-62
2023/07/06 09:06:27;;;;;;;2.72;1.55;;;;;;;;;;5026233;28;20135;-62
2023/07/06 09:08:55;;;;;;;3.00;1.60;;;;;;;;;;5025841;28;20045;-62
2023/07/06 09:11:24;;;;;;;1.70;1.60;;;;;;;;;;5026304;28;20060;-62
2023/07/06 09:13:51;;;;;;;5.15;2.00;;;;;;;;;;5025664;28;20605;-62
2023/07/06 09:16:21;;;;;;;1.50;1.27;;;;;;;;;;5025951;28;20048;-62
2023/07/06 09:18:47;;;;;;;1.00;1.00;;;;;;;;;;5026779;28;20692;-62
2023/07/06 09:21:16;;;;;;;1.15;1.02;;;;;;;;;;5026901;28;20073;-62
2023/07/06 09:23:45;;;;;;;0.90;0.90;;;;;;;;;;5027363;28;20053;-62
2023/07/06 09:26:16;;;;;;;0.80;0.80;;;;;;;;;;5026972;28;20523;-62
2023/07/06 09:28:42;;;;;;;1.10;1.00;;;;;;;;;;5026769;28;20071;-62
2023/07/06 09:31:15;;;;;;;0.85;0.70;;;;;;;;;;5026865;28;20041;-62
2023/07/06 09:33:48;;;;;;;0.95;0.80;;;;;;;;;;5027175;28;20045;-62
2023/07/06 09:36:16;;;;;;;1.83;1.40;;;;;;;;;;5026394;28;20064;-62
2023/07/06 09:38:45;;;;;;;2.15;1.58;;;;;;;;;;5026940;28;20054;-62
2023/07/06 09:41:22;;;;;;;3.30;2.10;;;;;;;;;;5026747;28;20124;-62
2023/07/06 09:43:50;;;;;;;3.65;2.10;;;;;;;;;;5026232;28;20045;-62
2023/07/06 09:46:16;;;;;;;2.63;1.45;;;;;;;;;;5026546;28;20362;-62
2023/07/06 09:48:42;;;;;;;1.45;1.10;;;;;;;;;;5026923;28;20490;-62
2023/07/06 09:51:27;;;;;;;1.30;1.20;;;;;;;;;;5025984;28;20048;-62
2023/07/06 09:53:59;;;;;;;3.22;1.45;;;;;;;;;;5026972;28;20047;-62
2023/07/06 09:56:25;;;;;;;2.10;1.20;;;;;;;;;;5026174;28;20053;-62
2023/07/06 09:58:52;;;;;;;2.42;1.77;;;;;;;;;;5026521;28;20046;-62
2023/07/06 10:01:37;;;;;;;1.23;1.17;;;;;;;;;;5026174;28;20079;-62
2023/07/06 10:04:06;;;;;;;1.92;1.08;;;;;;;;;;5025919;28;20482;-62
2023/07/06 10:06:40;;;;;;;0.98;0.98;;;;;;;;;;5026557;28;20041;-62
2023/07/06 10:09:14;;;;;;;0.90;0.90;;;;;;;;;;5026616;28;20052;-62
2023/07/06 10:11:47;;;;;;;1.88;0.93;;;;;;;;;;5026037;28;20097;-62
2023/07/06 10:14:16;;;;;;;0.90;0.90;;;;;;;;;;5025138;28;20045;-62
2023/07/06 10:16:42;;;;;;;1.10;1.00;;;;;;;;;;5026258;28;20445;-62
2023/07/06 10:19:09;;;;;;;0.80;0.80;;;;;;;;;;5025593;28;20057;-62
2023/07/06 10:21:43;;;;;;;1.52;1.33;;;;;;;;;;5026146;28;20099;-62
2023/07/06 10:24:24;;;;;;;2.85;1.23;;;;;;;;;;5025548;28;20045;-62
2023/07/06 10:26:53;;;;;;;1.48;1.00;;;;;;;;;;5026213;28;20490;-62
2023/07/06 10:29:24;;;;;;;2.13;1.10;;;;;;;;;;5026054;28;20064;-62
2023/07/06 10:31:53;;;;;;;1.08;0.70;;;;;;;;;;5025543;28;20056;-62
2023/07/06 10:34:39;;;;;;;0.88;0.80;;;;;;;;;;5025536;28;20049;-62
2023/07/06 10:37:06;;;;;;;1.05;0.95;;;;;;;;;;5026220;28;20060;-62
2023/07/06 10:39:32;;;;;;;1.05;0.88;;;;;;;;;;5025289;28;20050;-62
2023/07/06 10:42:18;;;;;;;2.15;1.10;;;;;;;;;;5026391;28;20116;-62
2023/07/06 10:44:55;;;;;;;3.08;0.90;;;;;;;;;;5025487;28;20120;-62
2023/07/06 10:47:33;;;;;;;1.10;0.90;;;;;;;;;;5025059;28;20421;-62
2023/07/06 10:50:23;;;;;;;0.73;0.70;;;;;;;;;;5026252;28;20113;-62
2023/07/06 10:53:12;;;;;;;0.90;0.77;;;;;;;;;;5019790;28;20061;-62
2023/07/06 10:55:39;;;;;;;1.65;1.10;;;;;;;;;;5020069;28;20137;-62
2023/07/06 10:58:11;;;;;;;1.98;0.82;;;;;;;;;;5025676;28;20463;-62
2023/07/06 11:00:38;;;;;;;0.77;0.70;;;;;;;;;;5025046;28;20077;-62
2023/07/06 11:03:08;;;;;;;1.83;1.00;;;;;;;;;;5025848;28;20453;-62
2023/07/06 11:05:35;;;;;;;0.95;0.80;;;;;;;;;;5025626;28;20041;-62
2023/07/06 11:08:05;;;;;;;0.60;0.60;;;;;;;;;;5025628;28;20068;-62
2023/07/06 11:10:37;;;;;;;0.60;0.60;;;;;;;;;;5025465;28;20049;-62
2023/07/06 11:13:06;;;;;;;1.50;0.82;;;;;;;;;;5025766;28;20049;-62
2023/07/06 11:15:56;;;;;;;0.93;0.90;;;;;;;;;;5024767;28;20049;-62
2023/07/06 11:18:22;;;;;;;1.58;0.68;;;;;;;;;;5025191;28;20081;-62
2023/07/06 11:20:57;;;;;;;0.80;0.80;;;;;;;;;;5024584;28;20476;-62
2023/07/06 11:23:31;;;;;;;2.28;1.08;;;;;;;;;;5025075;28;20049;-62
2023/07/06 11:25:59;;;;;;;1.70;1.00;;;;;;;;;;5025533;28;20041;-62
2023/07/06 11:28:27;;;;;;;1.95;1.20;;;;;;;;;;5024305;28;20455;-62
2023/07/06 11:31:13;;;;;;;1.08;0.88;;;;;;;;;;5025076;28;20521;-62
2023/07/06 11:33:47;;;;;;;0.88;0.80;;;;;;;;;;5025036;28;20080;-62
2023/07/06 11:36:17;;;;;;;3.25;1.13;;;;;;;;;;5024187;28;20041;-62
2023/07/06 11:38:56;;;;;;;1.42;1.00;;;;;;;;;;5024828;28;20045;-62
2023/07/06 11:41:40;;;;;;;0.65;0.60;;;;;;;;;;5024352;28;20045;-62
2023/07/06 11:44:26;;;;;;;1.02;0.80;;;;;;;;;;5025211;28;20168;-62
2023/07/06 11:47:17;;;;;;;0.73;0.68;;;;;;;;;;5025217;28;20049;-62
2023/07/06 11:49:50;;;;;;;2.75;0.88;;;;;;;;;;5024510;28;20045;-62
2023/07/06 11:52:16;;;;;;;0.50;0.50;;;;;;;;;;5025893;28;20104;-62
2023/07/06 11:54:54;;;;;;;0.60;0.50;;;;;;;;;;5026496;28;20141;-62
2023/07/06 11:57:45;;;;;;;0.43;0.43;;;;;;;;;;5025678;28;20041;-62
2023/07/06 12:03:13;;;;;;;1.80;0.73;;;;;;;;;;5024839;28;20088;-62
2023/07/06 12:05:40;;;;;;;0.73;0.57;;;;;;;;;;5024907;28;20121;-62
2023/07/06 12:08:16;;;;;;;1.02;0.60;;;;;;;;;;5024755;28;20076;-62
2023/07/06 12:10:45;;;;;;;2.88;0.57;;;;;;;;;;5024230;28;20268;-62
2023/07/06 12:13:31;;;;;;;0.52;0.52;;;;;;;;;;5024629;28;20076;-62
2023/07/06 12:16:05;;;;;;;1.50;0.50;;;;;;;;;;5018065;28;20552;-62
2023/07/06 12:18:33;;;;;;;1.08;0.40;;;;;;;;;;5024246;28;20049;-62
2023/07/06 12:20:59;;;;;;;0.63;0.43;;;;;;;;;;5025444;28;20041;-62
2023/07/06 12:23:26;;;;;;;0.63;0.30;;;;;;;;;;5024826;28;20049;-62
2023/07/06 12:25:54;;;;;;;0.40;0.30;;;;;;;;;;5024369;28;20052;-62
2023/07/06 12:28:20;;;;;;;0.20;0.20;;;;;;;;;;5024511;28;20144;-62
2023/07/06 12:30:49;;;;;;;0.25;0.25;;;;;;;;;;5024270;28;20450;-62
2023/07/06 12:33:16;;;;;;;0.40;0.40;;;;;;;;;;5024438;28;20132;-62
2023/07/06 12:35:43;;;;;;;0.30;0.30;;;;;;;;;;5024753;28;20053;-62
2023/07/06 12:38:14;;;;;;;0.30;0.30;;;;;;;;;;5025198;28;20038;-62
2023/07/06 12:40:40;;;;;;;0.60;0.30;;;;;;;;;;5028543;28;20570;-63
2023/07/06 12:43:15;;;;;;;0.70;0.50;;;;;;;;;;5028461;28;20501;-63
2023/07/06 12:45:41;;;;;;;0.25;0.20;;;;;;;;;;5027732;28;20069;-63
2023/07/06 12:48:17;;;;;;;0.30;0.30;;;;;;;;;;5028296;28;20042;-63
2023/07/06 12:50:46;;;;;;;0.90;0.50;;;;;;;;;;5028317;28;20042;-62
2023/07/06 12:53:14;;;;;;;0.65;0.52;;;;;;;;;;5027512;28;20045;-62
2023/07/06 12:55:41;;;;;;;0.45;0.30;;;;;;;;;;5028430;28;20037;-62
2023/07/06 12:58:14;;;;;;;1.17;0.50;;;;;;;;;;5027803;28;20083;-62
2023/07/06 13:00:40;;;;;;;0.35;0.35;;;;;;;;;;5027715;28;20041;-63
2023/07/06 13:03:10;;;;;;;0.73;0.50;;;;;;;;;;5027828;28;20525;-62
2023/07/06 13:05:36;;;;;;;0.40;0.30;;;;;;;;;;5028005;28;20091;-62
2023/07/06 13:08:08;;;;;;;0.50;0.38;;;;;;;;;;5027394;28;20128;-62
2023/07/06 13:10:36;;;;;;;0.50;0.45;;;;;;;;;;5027668;28;20049;-62
2023/07/06 13:13:06;;;;;;;0.65;0.45;;;;;;;;;;5027579;28;20056;-62
2023/07/06 13:15:40;;;;;;;0.30;0.30;;;;;;;;;;5028265;28;20425;-62
2023/07/06 13:18:14;;;;;;;1.67;0.43;;;;;;;;;;5028226;28;20053;-62
2023/07/06 13:20:41;;;;;;;1.10;0.30;;;;;;;;;;5027424;28;20049;-62
2023/07/06 13:23:10;;;;;;;0.40;0.40;;;;;;;;;;5027608;28;20044;-62
2023/07/06 13:25:44;;;;;;;1.02;0.63;;;;;;;;;;5027756;28;20033;-62
2023/07/06 13:28:13;;;;;;;1.45;0.52;;;;;;;;;;5026922;28;20053;-62
2023/07/06 13:30:43;;;;;;;0.80;0.65;;;;;;;;;;5027492;28;20045;-63
2023/07/06 13:33:12;;;;;;;2.55;0.85;;;;;;;;;;5027353;28;20042;-63
2023/07/06 13:35:38;;;;;;;0.95;0.60;;;;;;;;;;5026764;28;20060;-63
2023/07/06 13:38:04;;;;;;;1.02;0.60;;;;;;;;;;5027529;28;20033;-63
2023/07/06 13:40:30;;;;;;;0.63;0.45;;;;;;;;;;5027648;28;20044;-63
2023/07/06 13:42:59;;;;;;;0.40;0.40;;;;;;;;;;5027172;28;20049;-63
2023/07/06 13:45:29;;;;;;;0.57;0.40;;;;;;;;;;5026994;28;20084;-63
2023/07/06 13:47:56;;;;;;;0.70;0.50;;;;;;;;;;5026846;28;20210;-63
2023/07/06 13:50:25;;;;;;;0.30;0.30;;;;;;;;;;5026554;28;20046;-63
2023/07/06 13:52:52;;;;;;;0.60;0.35;;;;;;;;;;5027517;28;20481;-63
2023/07/06 13:55:30;;;;;;;2.05;0.50;;;;;;;;;;5026333;28;20120;-62
2023/07/06 13:57:56;;;;;;;0.95;0.60;;;;;;;;;;5027125;28;20049;-62
2023/07/06 14:00:23;;;;;;;0.73;0.55;;;;;;;;;;5026721;28;20205;-63
2023/07/06 14:02:49;;;;;;;0.45;0.40;;;;;;;;;;5026366;28;20045;-63
2023/07/06 14:05:16;;;;;;;1.23;0.70;;;;;;;;;;5026695;28;20041;-62
2023/07/06 14:07:42;;;;;;;0.60;0.60;;;;;;;;;;5026784;28;20634;-62
2023/07/06 14:10:09;;;;;;;0.80;0.50;;;;;;;;;;5026101;28;20045;-62
2023/07/06 14:12:35;;;;;;;0.35;0.32;;;;;;;;;;5026416;28;20072;-63
2023/07/06 14:15:02;;;;;;;1.27;0.60;;;;;;;;;;5027259;28;20084;-63
2023/07/06 14:17:28;;;;;;;0.60;0.57;;;;;;;;;;5026344;28;20045;-63
2023/07/06 14:19:54;;;;;;;0.95;0.45;;;;;;;;;;5026283;28;20470;-63
2023/07/06 14:22:22;;;;;;;0.52;0.50;;;;;;;;;;5026125;28;20457;-63
2023/07/06 14:24:51;;;;;;;0.50;0.38;;;;;;;;;;5025760;28;20413;-63
2023/07/06 14:27:19;;;;;;;1.60;0.65;;;;;;;;;;5026192;28;20488;-63
2023/07/06 14:29:45;;;;;;;1.05;0.50;;;;;;;;;;5026234;28;20049;-63
2023/07/06 14:32:15;;;;;;;0.63;0.45;;;;;;;;;;5025639;28;20049;-63
2023/07/06 14:34:47;;;;;;;2.10;0.80;;;;;;;;;;5024814;28;20053;-63
2023/07/06 14:37:15;;;;;;;1.05;0.60;;;;;;;;;;5025403;28;20528;-63
2023/07/06 14:39:41;;;;;;;0.85;0.63;;;;;;;;;;5026038;28;20124;-63
2023/07/06 14:42:08;;;;;;;0.82;0.63;;;;;;;;;;5025963;28;20133;-63
2023/07/06 14:44:38;;;;;;;0.50;0.50;;;;;;;;;;5026002;28;20051;-63
2023/07/06 14:47:04;;;;;;;2.20;0.80;;;;;;;;;;5026171;28;20037;-63
2023/07/06 14:49:30;;;;;;;3.20;1.00;;;;;;;;;;5026211;28;20076;-63
2023/07/06 14:51:56;;;;;;;0.93;0.80;;;;;;;;;;5025358;28;20072;-63
2023/07/06 14:54:22;;;;;;;0.80;0.50;;;;;;;;;;5024490;28;20050;-62
2023/07/06 14:56:48;;;;;;;0.50;0.50;;;;;;;;;;5025718;28;20049;-63